sensor_id;sensor_type;location;lat;lon;timestamp;temperature;humidity
27266;DHT22;14766;51.380;13.762;2023-04-25T00:00:20;13.40;51.10
27266;DHT22;14766;51.380;13.762;2023-04-25T00:02:47;13.40;51.20
27266;DHT22;14766;51.380;13.762;2023-04-25T00:05:14;13.40;51.20
27266;DHT22;14766;51.380;13.762;2023-04-25T00:07:43;13.40;51.40
27266;DHT22;14766;51.380;13.762;2023-04-25T00:10:10;13.40;51.50
27266;DHT22;14766;51.380;13.762;2023-04-25T00:12:38;13.40;51.60
27266;DHT22;14766;51.380;13.762;2023-04-25T00:15:06;13.40;51.70
27266;DHT22;14766;51.380;13.762;2023-04-25T00:17:33;13.40;51.70
27266;DHT22;14766;51.380;13.762;2023-04-25T00:20:02;13.40;51.70
27266;DHT22;14766;51.380;13.762;2023-04-25T00:22:32;13.40;51.80
27266;DHT22;14766;51.380;13.762;2023-04-25T00:25:06;13.40;51.80
27266;DHT22;14766;51.380;13.762;2023-04-25T00:27:33;13.40;51.90
27266;DHT22;14766;51.380;13.762;2023-04-25T00:30:00;13.40;52.00
27266;DHT22;14766;51.380;13.762;2023-04-25T00:32:27;13.40;51.90
27266;DHT22;14766;51.380;13.762;2023-04-25T00:34:55;13.40;52.00
27266;DHT22;14766;51.380;13.762;2023-04-25T00:37:25;13.50;52.10
27266;DHT22;14766;51.380;13.762;2023-04-25T00:39:52;13.50;52.10
27266;DHT22;14766;51.380;13.762;2023-04-25T00:42:20;13.50;52.10
27266;DHT22;14766;51.380;13.762;2023-04-25T00:44:48;13.50;52.10
27266;DHT22;14766;51.380;13.762;2023-04-25T00:47:16;13.50;52.00
27266;DHT22;14766;51.380;13.762;2023-04-25T00:49:43;13.50;52.10
27266;DHT22;14766;51.380;13.762;2023-04-25T00:52:12;13.40;52.00
27266;DHT22;14766;51.380;13.762;2023-04-25T00:54:39;13.40;52.00
27266;DHT22;14766;51.380;13.762;2023-04-25T00:57:06;13.40;52.00
27266;DHT22;14766;51.380;13.762;2023-04-25T00:59:33;13.40;52.10
27266;DHT22;14766;51.380;13.762;2023-04-25T01:02:01;13.40;52.10
27266;DHT22;14766;51.380;13.762;2023-04-25T01:04:28;13.40;52.10
27266;DHT22;14766;51.380;13.762;2023-04-25T01:06:55;13.50;52.20
27266;DHT22;14766;51.380;13.762;2023-04-25T01:09:24;13.50;52.10
27266;DHT22;14766;51.380;13.762;2023-04-25T01:11:54;13.50;52.10
27266;DHT22;14766;51.380;13.762;2023-04-25T01:14:21;13.50;51.80
27266;DHT22;14766;51.380;13.762;2023-04-25T01:16:48;13.50;51.80
27266;DHT22;14766;51.380;13.762;2023-04-25T01:19:17;13.50;51.80
27266;DHT22;14766;51.380;13.762;2023-04-25T01:21:46;13.50;51.80
27266;DHT22;14766;51.380;13.762;2023-04-25T01:24:14;13.50;51.80
27266;DHT22;14766;51.380;13.762;2023-04-25T01:26:42;13.50;51.80
27266;DHT22;14766;51.380;13.762;2023-04-25T01:29:21;13.50;51.80
27266;DHT22;14766;51.380;13.762;2023-04-25T01:31:49;13.50;51.90
27266;DHT22;14766;51.380;13.762;2023-04-25T01:34:18;13.50;52.00
27266;DHT22;14766;51.380;13.762;2023-04-25T01:36:46;13.40;52.00
27266;DHT22;14766;51.380;13.762;2023-04-25T01:39:14;13.50;52.10
27266;DHT22;14766;51.380;13.762;2023-04-25T01:41:45;13.50;52.30
27266;DHT22;14766;51.380;13.762;2023-04-25T01:44:12;13.50;52.30
27266;DHT22;14766;51.380;13.762;2023-04-25T01:46:41;13.50;52.50
27266;DHT22;14766;51.380;13.762;2023-04-25T01:49:08;13.50;52.60
27266;DHT22;14766;51.380;13.762;2023-04-25T01:51:36;13.50;52.50
27266;DHT22;14766;51.380;13.762;2023-04-25T01:54:03;13.60;52.60
27266;DHT22;14766;51.380;13.762;2023-04-25T01:56:32;13.50;52.70
27266;DHT22;14766;51.380;13.762;2023-04-25T01:59:00;13.50;52.80
27266;DHT22;14766;51.380;13.762;2023-04-25T02:02:02;13.50;53.00
27266;DHT22;14766;51.380;13.762;2023-04-25T02:04:32;13.50;53.10
27266;DHT22;14766;51.380;13.762;2023-04-25T02:07:00;13.50;53.40
27266;DHT22;14766;51.380;13.762;2023-04-25T02:09:37;13.50;53.70
27266;DHT22;14766;51.380;13.762;2023-04-25T02:12:07;13.40;53.80
27266;DHT22;14766;51.380;13.762;2023-04-25T02:14:47;13.40;54.00
27266;DHT22;14766;51.380;13.762;2023-04-25T02:17:19;13.30;54.10
27266;DHT22;14766;51.380;13.762;2023-04-25T02:19:49;13.30;54.50
27266;DHT22;14766;51.380;13.762;2023-04-25T02:22:16;13.20;54.40
27266;DHT22;14766;51.380;13.762;2023-04-25T02:24:46;13.20;54.40
27266;DHT22;14766;51.380;13.762;2023-04-25T02:27:14;13.20;54.70
27266;DHT22;14766;51.380;13.762;2023-04-25T02:29:41;13.20;54.80
27266;DHT22;14766;51.380;13.762;2023-04-25T02:32:10;13.10;55.00
27266;DHT22;14766;51.380;13.762;2023-04-25T02:34:37;13.10;55.40
27266;DHT22;14766;51.380;13.762;2023-04-25T02:37:04;13.10;55.30
27266;DHT22;14766;51.380;13.762;2023-04-25T02:39:33;13.00;55.50
27266;DHT22;14766;51.380;13.762;2023-04-25T02:42:00;13.00;55.50
27266;DHT22;14766;51.380;13.762;2023-04-25T02:44:29;13.00;55.50
27266;DHT22;14766;51.380;13.762;2023-04-25T02:46:56;13.00;55.70
27266;DHT22;14766;51.380;13.762;2023-04-25T02:49:23;13.00;55.70
27266;DHT22;14766;51.380;13.762;2023-04-25T02:51:51;13.00;55.70
27266;DHT22;14766;51.380;13.762;2023-04-25T02:54:18;13.00;55.70
27266;DHT22;14766;51.380;13.762;2023-04-25T02:56:47;12.90;55.50
27266;DHT22;14766;51.380;13.762;2023-04-25T02:59:20;12.90;55.50
27266;DHT22;14766;51.380;13.762;2023-04-25T03:01:48;12.90;55.40
27266;DHT22;14766;51.380;13.762;2023-04-25T03:04:17;12.90;55.50
27266;DHT22;14766;51.380;13.762;2023-04-25T03:06:47;12.80;55.40
27266;DHT22;14766;51.380;13.762;2023-04-25T03:09:14;12.80;55.60
27266;DHT22;14766;51.380;13.762;2023-04-25T03:11:41;12.80;55.50
27266;DHT22;14766;51.380;13.762;2023-04-25T03:14:08;12.70;55.60
27266;DHT22;14766;51.380;13.762;2023-04-25T03:16:37;12.70;55.70
27266;DHT22;14766;51.380;13.762;2023-04-25T03:19:04;12.60;55.60
27266;DHT22;14766;51.380;13.762;2023-04-25T03:21:33;12.60;55.80
27266;DHT22;14766;51.380;13.762;2023-04-25T03:24:04;12.50;55.70
27266;DHT22;14766;51.380;13.762;2023-04-25T03:26:31;12.40;55.70
27266;DHT22;14766;51.380;13.762;2023-04-25T03:28:59;12.40;55.70
27266;DHT22;14766;51.380;13.762;2023-04-25T03:31:26;12.30;56.50
27266;DHT22;14766;51.380;13.762;2023-04-25T03:33:54;12.20;55.90
27266;DHT22;14766;51.380;13.762;2023-04-25T03:36:22;12.20;56.10
27266;DHT22;14766;51.380;13.762;2023-04-25T03:38:50;12.20;56.10
27266;DHT22;14766;51.380;13.762;2023-04-25T03:41:19;12.10;56.10
27266;DHT22;14766;51.380;13.762;2023-04-25T03:43:54;12.10;56.20
27266;DHT22;14766;51.380;13.762;2023-04-25T03:46:21;12.10;56.30
27266;DHT22;14766;51.380;13.762;2023-04-25T03:48:49;12.10;56.10
27266;DHT22;14766;51.380;13.762;2023-04-25T03:51:21;12.00;56.20
27266;DHT22;14766;51.380;13.762;2023-04-25T03:53:49;12.00;56.20
27266;DHT22;14766;51.380;13.762;2023-04-25T03:56:19;12.00;56.20
27266;DHT22;14766;51.380;13.762;2023-04-25T03:58:55;12.00;56.20
27266;DHT22;14766;51.380;13.762;2023-04-25T04:01:24;12.00;56.20
27266;DHT22;14766;51.380;13.762;2023-04-25T04:03:52;12.00;56.10
27266;DHT22;14766;51.380;13.762;2023-04-25T04:06:20;11.90;56.00
27266;DHT22;14766;51.380;13.762;2023-04-25T04:08:54;11.90;56.00
27266;DHT22;14766;51.380;13.762;2023-04-25T04:11:23;11.90;56.10
27266;DHT22;14766;51.380;13.762;2023-04-25T04:13:50;11.90;56.10
27266;DHT22;14766;51.380;13.762;2023-04-25T04:16:17;11.90;56.10
27266;DHT22;14766;51.380;13.762;2023-04-25T04:18:46;11.90;56.10
27266;DHT22;14766;51.380;13.762;2023-04-25T04:21:13;11.90;56.10
27266;DHT22;14766;51.380;13.762;2023-04-25T04:23:41;11.90;56.00
27266;DHT22;14766;51.380;13.762;2023-04-25T04:26:09;11.90;56.00
27266;DHT22;14766;51.380;13.762;2023-04-25T04:28:46;11.90;56.00
27266;DHT22;14766;51.380;13.762;2023-04-25T04:31:22;11.90;56.10
27266;DHT22;14766;51.380;13.762;2023-04-25T04:33:50;11.90;56.00
27266;DHT22;14766;51.380;13.762;2023-04-25T04:36:19;11.80;56.00
27266;DHT22;14766;51.380;13.762;2023-04-25T04:38:50;11.80;56.00
27266;DHT22;14766;51.380;13.762;2023-04-25T04:41:28;11.80;56.80
27266;DHT22;14766;51.380;13.762;2023-04-25T04:44:09;11.80;56.10
27266;DHT22;14766;51.380;13.762;2023-04-25T04:46:56;11.80;56.10
27266;DHT22;14766;51.380;13.762;2023-04-25T04:49:42;11.90;56.10
27266;DHT22;14766;51.380;13.762;2023-04-25T04:52:28;11.90;56.10
27266;DHT22;14766;51.380;13.762;2023-04-25T04:55:04;12.00;56.40
27266;DHT22;14766;51.380;13.762;2023-04-25T04:58:04;12.00;56.10
27266;DHT22;14766;51.380;13.762;2023-04-25T05:00:51;12.00;56.00
27266;DHT22;14766;51.380;13.762;2023-04-25T05:03:31;12.00;55.90
27266;DHT22;14766;51.380;13.762;2023-04-25T05:06:18;12.00;55.70
27266;DHT22;14766;51.380;13.762;2023-04-25T05:09:11;12.00;55.70
27266;DHT22;14766;51.380;13.762;2023-04-25T05:12:14;12.00;55.70
27266;DHT22;14766;51.380;13.762;2023-04-25T05:14:57;12.00;55.90
27266;DHT22;14766;51.380;13.762;2023-04-25T05:17:43;12.10;55.80
27266;DHT22;14766;51.380;13.762;2023-04-25T05:20:40;12.10;55.90
27266;DHT22;14766;51.380;13.762;2023-04-25T05:23:33;12.10;55.70
27266;DHT22;14766;51.380;13.762;2023-04-25T05:26:29;12.10;55.60
27266;DHT22;14766;51.380;13.762;2023-04-25T05:29:21;12.10;55.60
27266;DHT22;14766;51.380;13.762;2023-04-25T05:32:02;12.20;55.70
27266;DHT22;14766;51.380;13.762;2023-04-25T05:34:30;12.20;55.70
27266;DHT22;14766;51.380;13.762;2023-04-25T05:37:01;12.30;55.80
27266;DHT22;14766;51.380;13.762;2023-04-25T05:39:30;12.30;55.80
27266;DHT22;14766;51.380;13.762;2023-04-25T05:42:20;12.30;55.70
27266;DHT22;14766;51.380;13.762;2023-04-25T05:44:47;12.40;55.60
27266;DHT22;14766;51.380;13.762;2023-04-25T05:47:33;12.40;55.50
27266;DHT22;14766;51.380;13.762;2023-04-25T05:50:21;12.40;56.00
27266;DHT22;14766;51.380;13.762;2023-04-25T05:52:54;12.50;55.40
27266;DHT22;14766;51.380;13.762;2023-04-25T05:55:41;12.60;55.30
27266;DHT22;14766;51.380;13.762;2023-04-25T05:58:21;12.60;55.10
27266;DHT22;14766;51.380;13.762;2023-04-25T06:00:48;12.70;55.00
27266;DHT22;14766;51.380;13.762;2023-04-25T06:03:16;12.80;54.90
27266;DHT22;14766;51.380;13.762;2023-04-25T06:05:47;12.80;54.90
27266;DHT22;14766;51.380;13.762;2023-04-25T06:08:14;12.90;54.70
27266;DHT22;14766;51.380;13.762;2023-04-25T06:10:43;13.00;55.20
27266;DHT22;14766;51.380;13.762;2023-04-25T06:13:13;13.00;53.80
27266;DHT22;14766;51.380;13.762;2023-04-25T06:15:40;13.10;53.90
27266;DHT22;14766;51.380;13.762;2023-04-25T06:18:07;13.10;54.00
27266;DHT22;14766;51.380;13.762;2023-04-25T06:20:34;13.20;54.10
27266;DHT22;14766;51.380;13.762;2023-04-25T06:23:01;13.20;54.10
27266;DHT22;14766;51.380;13.762;2023-04-25T06:25:40;13.30;53.90
27266;DHT22;14766;51.380;13.762;2023-04-25T06:28:07;13.40;53.50
27266;DHT22;14766;51.380;13.762;2023-04-25T06:30:36;13.50;53.60
27266;DHT22;14766;51.380;13.762;2023-04-25T06:33:08;13.60;53.90
27266;DHT22;14766;51.380;13.762;2023-04-25T06:35:38;13.70;53.50
27266;DHT22;14766;51.380;13.762;2023-04-25T06:38:09;13.80;52.40
27266;DHT22;14766;51.380;13.762;2023-04-25T06:40:38;13.90;52.90
27266;DHT22;14766;51.380;13.762;2023-04-25T06:43:07;14.00;52.90
27266;DHT22;14766;51.380;13.762;2023-04-25T06:45:47;14.10;52.70
27266;DHT22;14766;51.380;13.762;2023-04-25T06:48:15;14.30;52.40
27266;DHT22;14766;51.380;13.762;2023-04-25T06:50:42;14.50;52.70
27266;DHT22;14766;51.380;13.762;2023-04-25T06:53:11;14.80;52.50
27266;DHT22;14766;51.380;13.762;2023-04-25T06:55:40;15.10;52.60
27266;DHT22;14766;51.380;13.762;2023-04-25T06:58:12;15.40;51.90
27266;DHT22;14766;51.380;13.762;2023-04-25T07:00:48;15.70;51.30
27266;DHT22;14766;51.380;13.762;2023-04-25T07:03:17;16.10;49.80
27266;DHT22;14766;51.380;13.762;2023-04-25T07:05:46;16.40;48.40
27266;DHT22;14766;51.380;13.762;2023-04-25T07:08:13;16.70;47.90
27266;DHT22;14766;51.380;13.762;2023-04-25T07:10:41;17.00;47.00
27266;DHT22;14766;51.380;13.762;2023-04-25T07:13:08;17.30;46.20
27266;DHT22;14766;51.380;13.762;2023-04-25T07:15:35;17.50;46.00
27266;DHT22;14766;51.380;13.762;2023-04-25T07:18:03;17.90;45.60
27266;DHT22;14766;51.380;13.762;2023-04-25T07:20:32;18.20;45.70
27266;DHT22;14766;51.380;13.762;2023-04-25T07:23:00;18.40;44.60
27266;DHT22;14766;51.380;13.762;2023-04-25T07:25:29;18.70;42.80
27266;DHT22;14766;51.380;13.762;2023-04-25T07:27:57;18.80;43.20
27266;DHT22;14766;51.380;13.762;2023-04-25T07:30:25;18.90;42.80
27266;DHT22;14766;51.380;13.762;2023-04-25T07:32:53;19.00;42.00
27266;DHT22;14766;51.380;13.762;2023-04-25T07:35:21;19.10;41.10
27266;DHT22;14766;51.380;13.762;2023-04-25T07:37:49;19.00;40.60
27266;DHT22;14766;51.380;13.762;2023-04-25T07:40:18;19.00;40.60
27266;DHT22;14766;51.380;13.762;2023-04-25T07:42:49;18.90;40.60
27266;DHT22;14766;51.380;13.762;2023-04-25T07:45:23;18.80;40.70
27266;DHT22;14766;51.380;13.762;2023-04-25T07:47:52;18.70;41.60
27266;DHT22;14766;51.380;13.762;2023-04-25T07:50:21;18.60;41.70
27266;DHT22;14766;51.380;13.762;2023-04-25T07:52:48;18.50;42.00
27266;DHT22;14766;51.380;13.762;2023-04-25T07:55:25;18.40;41.60
27266;DHT22;14766;51.380;13.762;2023-04-25T07:58:01;18.30;41.60
27266;DHT22;14766;51.380;13.762;2023-04-25T08:00:30;18.10;42.00
27266;DHT22;14766;51.380;13.762;2023-04-25T08:03:17;18.00;42.60
27266;DHT22;14766;51.380;13.762;2023-04-25T08:05:45;17.90;42.80
27266;DHT22;14766;51.380;13.762;2023-04-25T08:08:14;17.80;42.90
27266;DHT22;14766;51.380;13.762;2023-04-25T08:10:42;17.70;43.50
27266;DHT22;14766;51.380;13.762;2023-04-25T08:13:09;17.70;44.50
27266;DHT22;14766;51.380;13.762;2023-04-25T08:15:39;17.70;43.60
27266;DHT22;14766;51.380;13.762;2023-04-25T08:18:07;17.70;43.50
27266;DHT22;14766;51.380;13.762;2023-04-25T08:20:34;17.70;43.10
27266;DHT22;14766;51.380;13.762;2023-04-25T08:23:04;17.70;42.10
27266;DHT22;14766;51.380;13.762;2023-04-25T08:25:44;17.60;42.60
27266;DHT22;14766;51.380;13.762;2023-04-25T08:28:15;17.60;43.40
27266;DHT22;14766;51.380;13.762;2023-04-25T08:30:43;17.40;43.30
27266;DHT22;14766;51.380;13.762;2023-04-25T08:33:12;17.40;43.50
27266;DHT22;14766;51.380;13.762;2023-04-25T08:35:58;17.40;43.60
27266;DHT22;14766;51.380;13.762;2023-04-25T08:38:26;17.30;43.70
27266;DHT22;14766;51.380;13.762;2023-04-25T08:40:54;17.20;44.00
27266;DHT22;14766;51.380;13.762;2023-04-25T08:43:23;17.20;44.90
27266;DHT22;14766;51.380;13.762;2023-04-25T08:45:53;17.10;44.20
27266;DHT22;14766;51.380;13.762;2023-04-25T08:48:33;17.00;44.00
27266;DHT22;14766;51.380;13.762;2023-04-25T08:51:07;16.90;44.10
27266;DHT22;14766;51.380;13.762;2023-04-25T08:53:34;16.80;44.50
27266;DHT22;14766;51.380;13.762;2023-04-25T08:56:04;16.70;44.40
27266;DHT22;14766;51.380;13.762;2023-04-25T08:58:35;16.60;44.70
27266;DHT22;14766;51.380;13.762;2023-04-25T09:01:03;16.40;45.20
27266;DHT22;14766;51.380;13.762;2023-04-25T09:03:38;16.30;44.90
27266;DHT22;14766;51.380;13.762;2023-04-25T09:06:05;16.20;45.20
27266;DHT22;14766;51.380;13.762;2023-04-25T09:08:33;16.10;45.40
27266;DHT22;14766;51.380;13.762;2023-04-25T09:11:01;16.00;45.60
27266;DHT22;14766;51.380;13.762;2023-04-25T09:13:28;16.00;45.80
27266;DHT22;14766;51.380;13.762;2023-04-25T09:16:18;15.90;45.80
27266;DHT22;14766;51.380;13.762;2023-04-25T09:19:07;15.90;46.10
27266;DHT22;14766;51.380;13.762;2023-04-25T09:21:34;15.80;46.50
27266;DHT22;14766;51.380;13.762;2023-04-25T09:24:04;15.80;46.80
27266;DHT22;14766;51.380;13.762;2023-04-25T09:26:31;15.80;46.80
27266;DHT22;14766;51.380;13.762;2023-04-25T09:29:07;15.80;47.20
27266;DHT22;14766;51.380;13.762;2023-04-25T09:31:39;15.80;47.50
27266;DHT22;14766;51.380;13.762;2023-04-25T09:34:09;15.80;47.40
27266;DHT22;14766;51.380;13.762;2023-04-25T09:36:49;15.90;47.50
27266;DHT22;14766;51.380;13.762;2023-04-25T09:39:44;15.90;47.00
27266;DHT22;14766;51.380;13.762;2023-04-25T09:42:15;15.80;47.60
27266;DHT22;14766;51.380;13.762;2023-04-25T09:44:46;15.90;47.70
27266;DHT22;14766;51.380;13.762;2023-04-25T09:47:15;16.10;48.00
27266;DHT22;14766;51.380;13.762;2023-04-25T09:49:44;16.20;47.90
27266;DHT22;14766;51.380;13.762;2023-04-25T09:52:17;16.40;47.30
27266;DHT22;14766;51.380;13.762;2023-04-25T09:54:56;16.50;46.60
27266;DHT22;14766;51.380;13.762;2023-04-25T09:57:32;16.60;46.20
27266;DHT22;14766;51.380;13.762;2023-04-25T10:00:01;16.60;46.30
27266;DHT22;14766;51.380;13.762;2023-04-25T10:02:42;16.60;46.30
27266;DHT22;14766;51.380;13.762;2023-04-25T10:05:17;16.60;46.40
27266;DHT22;14766;51.380;13.762;2023-04-25T10:07:44;16.50;46.10
27266;DHT22;14766;51.380;13.762;2023-04-25T10:10:16;16.50;46.10
27266;DHT22;14766;51.380;13.762;2023-04-25T10:12:44;16.40;46.30
27266;DHT22;14766;51.380;13.762;2023-04-25T10:15:12;16.40;46.60
27266;DHT22;14766;51.380;13.762;2023-04-25T10:17:40;16.30;46.80
27266;DHT22;14766;51.380;13.762;2023-04-25T10:20:10;16.30;47.00
27266;DHT22;14766;51.380;13.762;2023-04-25T10:22:41;16.20;46.90
27266;DHT22;14766;51.380;13.762;2023-04-25T10:25:10;16.10;47.00
27266;DHT22;14766;51.380;13.762;2023-04-25T10:27:39;16.10;47.40
27266;DHT22;14766;51.380;13.762;2023-04-25T10:30:10;16.00;47.60
27266;DHT22;14766;51.380;13.762;2023-04-25T10:32:39;16.00;48.50
27266;DHT22;14766;51.380;13.762;2023-04-25T10:40:24;15.80;48.50
27266;DHT22;14766;51.380;13.762;2023-04-25T10:42:54;15.70;48.50
27266;DHT22;14766;51.380;13.762;2023-04-25T10:45:22;15.70;49.50
27266;DHT22;14766;51.380;13.762;2023-04-25T10:47:50;15.60;50.50
27266;DHT22;14766;51.380;13.762;2023-04-25T10:50:17;15.50;51.00
27266;DHT22;14766;51.380;13.762;2023-04-25T10:52:46;15.40;51.00
27266;DHT22;14766;51.380;13.762;2023-04-25T10:55:13;15.30;50.90
27266;DHT22;14766;51.380;13.762;2023-04-25T10:57:45;15.30;51.00
27266;DHT22;14766;51.380;13.762;2023-04-25T11:00:18;15.20;51.40
27266;DHT22;14766;51.380;13.762;2023-04-25T11:02:52;15.10;52.70
27266;DHT22;14766;51.380;13.762;2023-04-25T11:05:30;15.10;53.40
27266;DHT22;14766;51.380;13.762;2023-04-25T11:08:00;15.00;53.40
27266;DHT22;14766;51.380;13.762;2023-04-25T11:10:34;15.00;53.10
27266;DHT22;14766;51.380;13.762;2023-04-25T11:13:04;15.00;52.30
27266;DHT22;14766;51.380;13.762;2023-04-25T11:15:31;15.00;52.10
27266;DHT22;14766;51.380;13.762;2023-04-25T11:17:58;15.00;51.70
27266;DHT22;14766;51.380;13.762;2023-04-25T11:20:26;15.00;51.30
27266;DHT22;14766;51.380;13.762;2023-04-25T11:22:58;15.00;50.80
27266;DHT22;14766;51.380;13.762;2023-04-25T11:25:26;15.00;50.80
27266;DHT22;14766;51.380;13.762;2023-04-25T11:27:57;15.00;50.40
27266;DHT22;14766;51.380;13.762;2023-04-25T11:30:26;15.00;50.30
27266;DHT22;14766;51.380;13.762;2023-04-25T11:32:53;15.00;50.40
27266;DHT22;14766;51.380;13.762;2023-04-25T11:35:20;15.00;50.70
27266;DHT22;14766;51.380;13.762;2023-04-25T11:37:50;15.00;50.80
27266;DHT22;14766;51.380;13.762;2023-04-25T11:40:17;15.00;50.50
27266;DHT22;14766;51.380;13.762;2023-04-25T11:42:46;15.00;50.10
27266;DHT22;14766;51.380;13.762;2023-04-25T11:45:14;15.00;50.20
27266;DHT22;14766;51.380;13.762;2023-04-25T11:47:42;15.10;50.40
27266;DHT22;14766;51.380;13.762;2023-04-25T11:50:10;15.10;50.40
27266;DHT22;14766;51.380;13.762;2023-04-25T11:52:38;15.20;50.20
27266;DHT22;14766;51.380;13.762;2023-04-25T11:55:10;15.30;50.00
27266;DHT22;14766;51.380;13.762;2023-04-25T11:57:41;15.50;48.30
27266;DHT22;14766;51.380;13.762;2023-04-25T12:02:44;15.60;46.80
27266;DHT22;14766;51.380;13.762;2023-04-25T12:05:13;15.70;46.30
27266;DHT22;14766;51.380;13.762;2023-04-25T12:07:47;15.80;45.70
27266;DHT22;14766;51.380;13.762;2023-04-25T12:10:16;15.80;45.00
27266;DHT22;14766;51.380;13.762;2023-04-25T12:12:45;15.80;45.30
27266;DHT22;14766;51.380;13.762;2023-04-25T12:15:13;15.80;45.40
27266;DHT22;14766;51.380;13.762;2023-04-25T12:17:51;15.80;45.50
27266;DHT22;14766;51.380;13.762;2023-04-25T12:20:21;15.80;46.10
27266;DHT22;14766;51.380;13.762;2023-04-25T12:22:50;15.80;46.20
27266;DHT22;14766;51.380;13.762;2023-04-25T12:25:40;15.90;46.10
27266;DHT22;14766;51.380;13.762;2023-04-25T12:28:22;16.00;46.00
27266;DHT22;14766;51.380;13.762;2023-04-25T12:33:22;16.10;44.80
27266;DHT22;14766;51.380;13.762;2023-04-25T12:35:49;16.20;44.80
27266;DHT22;14766;51.380;13.762;2023-04-25T12:38:29;16.20;44.50
27266;DHT22;14766;51.380;13.762;2023-04-25T12:40:57;16.20;44.20
27266;DHT22;14766;51.380;13.762;2023-04-25T12:43:25;16.20;44.30
27266;DHT22;14766;51.380;13.762;2023-04-25T12:45:53;16.20;44.30
27266;DHT22;14766;51.380;13.762;2023-04-25T12:48:21;16.10;44.40
27266;DHT22;14766;51.380;13.762;2023-04-25T12:50:50;16.10;44.50
27266;DHT22;14766;51.380;13.762;2023-04-25T12:53:21;16.10;44.20
27266;DHT22;14766;51.380;13.762;2023-04-25T12:55:49;16.00;44.00
27266;DHT22;14766;51.380;13.762;2023-04-25T12:58:19;16.00;44.30
27266;DHT22;14766;51.380;13.762;2023-04-25T13:00:47;15.90;44.50
27266;DHT22;14766;51.380;13.762;2023-04-25T13:03:16;15.80;44.90
27266;DHT22;14766;51.380;13.762;2023-04-25T13:05:43;15.70;45.20
27266;DHT22;14766;51.380;13.762;2023-04-25T13:08:10;15.70;45.40
27266;DHT22;14766;51.380;13.762;2023-04-25T13:10:38;15.60;45.60
27266;DHT22;14766;51.380;13.762;2023-04-25T13:13:06;15.60;45.80
27266;DHT22;14766;51.380;13.762;2023-04-25T13:15:33;15.60;46.40
27266;DHT22;14766;51.380;13.762;2023-04-25T13:18:00;15.60;45.90
27266;DHT22;14766;51.380;13.762;2023-04-25T13:20:28;15.60;45.90
27266;DHT22;14766;51.380;13.762;2023-04-25T13:22:57;15.60;46.40
27266;DHT22;14766;51.380;13.762;2023-04-25T13:25:26;15.60;46.10
27266;DHT22;14766;51.380;13.762;2023-04-25T13:27:53;15.70;45.50
27266;DHT22;14766;51.380;13.762;2023-04-25T13:30:20;15.80;46.10
27266;DHT22;14766;51.380;13.762;2023-04-25T13:32:48;15.80;45.10
27266;DHT22;14766;51.380;13.762;2023-04-25T13:35:17;15.80;45.50
27266;DHT22;14766;51.380;13.762;2023-04-25T13:37:45;15.80;44.60
27266;DHT22;14766;51.380;13.762;2023-04-25T13:40:12;15.90;43.90
27266;DHT22;14766;51.380;13.762;2023-04-25T13:42:40;15.90;43.80
27266;DHT22;14766;51.380;13.762;2023-04-25T13:45:10;15.90;43.60
27266;DHT22;14766;51.380;13.762;2023-04-25T13:47:37;15.80;43.30
27266;DHT22;14766;51.380;13.762;2023-04-25T13:50:06;15.80;43.70
27266;DHT22;14766;51.380;13.762;2023-04-25T13:52:34;15.70;43.60
27266;DHT22;14766;51.380;13.762;2023-04-25T13:55:01;15.70;43.70
27266;DHT22;14766;51.380;13.762;2023-04-25T13:57:34;15.60;44.10
27266;DHT22;14766;51.380;13.762;2023-04-25T14:00:04;15.60;42.90
27266;DHT22;14766;51.380;13.762;2023-04-25T14:02:36;15.60;42.70
27266;DHT22;14766;51.380;13.762;2023-04-25T14:05:04;15.60;42.80
27266;DHT22;14766;51.380;13.762;2023-04-25T14:07:34;15.60;42.70
27266;DHT22;14766;51.380;13.762;2023-04-25T14:10:02;15.60;42.80
27266;DHT22;14766;51.380;13.762;2023-04-25T14:12:29;15.60;42.80
27266;DHT22;14766;51.380;13.762;2023-04-25T14:14:56;15.70;42.10
27266;DHT22;14766;51.380;13.762;2023-04-25T14:17:23;15.60;41.50
27266;DHT22;14766;51.380;13.762;2023-04-25T14:19:52;15.60;41.70
27266;DHT22;14766;51.380;13.762;2023-04-25T14:22:20;15.60;42.20
27266;DHT22;14766;51.380;13.762;2023-04-25T14:24:47;15.70;42.50
27266;DHT22;14766;51.380;13.762;2023-04-25T14:27:15;15.70;42.50
27266;DHT22;14766;51.380;13.762;2023-04-25T14:29:43;15.80;41.70
27266;DHT22;14766;51.380;13.762;2023-04-25T14:32:10;15.80;40.50
27266;DHT22;14766;51.380;13.762;2023-04-25T14:34:40;15.80;40.30
27266;DHT22;14766;51.380;13.762;2023-04-25T14:37:07;15.80;40.70
27266;DHT22;14766;51.380;13.762;2023-04-25T14:39:34;15.90;39.10
27266;DHT22;14766;51.380;13.762;2023-04-25T14:42:01;15.90;39.30
27266;DHT22;14766;51.380;13.762;2023-04-25T14:44:30;15.90;39.90
27266;DHT22;14766;51.380;13.762;2023-04-25T14:46:57;15.90;40.20
27266;DHT22;14766;51.380;13.762;2023-04-25T14:49:26;15.90;39.90
27266;DHT22;14766;51.380;13.762;2023-04-25T14:51:54;15.90;39.10
27266;DHT22;14766;51.380;13.762;2023-04-25T14:54:22;16.00;39.90
27266;DHT22;14766;51.380;13.762;2023-04-25T14:56:49;16.00;40.50
27266;DHT22;14766;51.380;13.762;2023-04-25T14:59:19;16.00;40.40
27266;DHT22;14766;51.380;13.762;2023-04-25T15:01:49;16.10;39.10
27266;DHT22;14766;51.380;13.762;2023-04-25T15:04:16;16.10;38.90
27266;DHT22;14766;51.380;13.762;2023-04-25T15:06:44;16.10;38.80
27266;DHT22;14766;51.380;13.762;2023-04-25T15:09:11;16.10;38.10
27266;DHT22;14766;51.380;13.762;2023-04-25T15:11:38;16.10;37.40
27266;DHT22;14766;51.380;13.762;2023-04-25T15:14:05;16.10;38.10
27266;DHT22;14766;51.380;13.762;2023-04-25T15:16:33;16.10;38.00
27266;DHT22;14766;51.380;13.762;2023-04-25T15:19:00;16.10;37.70
27266;DHT22;14766;51.380;13.762;2023-04-25T15:21:31;16.10;37.10
27266;DHT22;14766;51.380;13.762;2023-04-25T15:24:01;16.10;36.90
27266;DHT22;14766;51.380;13.762;2023-04-25T15:26:29;16.00;36.80
27266;DHT22;14766;51.380;13.762;2023-04-25T15:28:56;16.00;37.00
27266;DHT22;14766;51.380;13.762;2023-04-25T15:31:23;16.00;37.20
27266;DHT22;14766;51.380;13.762;2023-04-25T15:33:50;16.00;37.60
27266;DHT22;14766;51.380;13.762;2023-04-25T15:36:18;15.90;37.80
27266;DHT22;14766;51.380;13.762;2023-04-25T15:38:47;16.00;37.90
27266;DHT22;14766;51.380;13.762;2023-04-25T15:41:14;16.00;37.50
27266;DHT22;14766;51.380;13.762;2023-04-25T15:43:41;15.90;36.90
27266;DHT22;14766;51.380;13.762;2023-04-25T15:46:08;15.90;36.40